Time;durP1;ratioP1;P1;durP2;ratioP2;P2;SDS_P1;SDS_P2;PMS_P1;PMS_P2;Temp;Humidity;BMP_temperature;BMP_pressure;BME280_temperature;BME280_humidity;BME280_pressure;Samples;Min_cycle;Max_cycle;Signal;HPM_P1;HPM_P2
2023/12/12 00:02:09;;;;;;;2.00;0.70;;;;;;;;;;5039678;28;20136;-62
2023/12/12 00:04:36;;;;;;;0.35;0.30;;;;;;;;;;5033129;28;20047;-62
2023/12/12 00:07:02;;;;;;;0.90;0.47;;;;;;;;;;5035139;28;20033;-62
2023/12/12 00:09:28;;;;;;;1.45;0.38;;;;;;;;;;5034684;28;20057;-62
2023/12/12 00:11:54;;;;;;;0.95;0.30;;;;;;;;;;5038456;28;20091;-62
2023/12/12 00:14:20;;;;;;;3.13;0.68;;;;;;;;;;5037856;28;20045;-62
2023/12/12 00:16:46;;;;;;;0.45;0.30;;;;;;;;;;5032411;28;20072;-61
2023/12/12 00:19:12;;;;;;;1.75;0.65;;;;;;;;;;5037177;28;20103;-62
2023/12/12 00:21:38;;;;;;;1.35;0.28;;;;;;;;;;5036022;28;20037;-62
2023/12/12 00:24:04;;;;;;;1.88;0.70;;;;;;;;;;5037619;28;20043;-61
2023/12/12 00:26:30;;;;;;;1.13;0.50;;;;;;;;;;5038225;28;20095;-61
2023/12/12 00:28:56;;;;;;;0.60;0.50;;;;;;;;;;5036916;28;20076;-61
2023/12/12 00:31:22;;;;;;;1.88;0.95;;;;;;;;;;5036290;28;20037;-62
2023/12/12 00:33:48;;;;;;;0.90;0.65;;;;;;;;;;5032033;28;20587;-62
2023/12/12 00:36:14;;;;;;;0.50;0.38;;;;;;;;;;5036410;28;20045;-61
2023/12/12 00:38:40;;;;;;;3.75;0.80;;;;;;;;;;5033313;28;20037;-61
2023/12/12 00:41:07;;;;;;;1.00;0.40;;;;;;;;;;5036015;28;20045;-61
2023/12/12 00:43:33;;;;;;;1.42;0.57;;;;;;;;;;5034595;28;20041;-61
2023/12/12 00:45:59;;;;;;;0.93;0.35;;;;;;;;;;5034229;28;20567;-61
2023/12/12 00:48:25;;;;;;;0.70;0.40;;;;;;;;;;5038580;28;20049;-62
2023/12/12 00:50:51;;;;;;;0.55;0.35;;;;;;;;;;5036928;28;20037;-61
2023/12/12 00:53:17;;;;;;;0.75;0.73;;;;;;;;;;5036963;28;20099;-61
2023/12/12 00:55:43;;;;;;;2.08;0.30;;;;;;;;;;5032558;28;20124;-61
2023/12/12 00:58:09;;;;;;;0.82;0.50;;;;;;;;;;5034454;28;20139;-61
2023/12/12 01:00:35;;;;;;;2.45;0.90;;;;;;;;;;5034032;28;20076;-61
2023/12/12 01:03:01;;;;;;;1.20;0.50;;;;;;;;;;5037877;28;20037;-61
2023/12/12 01:05:27;;;;;;;0.52;0.40;;;;;;;;;;5038668;28;20056;-61
2023/12/12 01:07:53;;;;;;;1.05;0.57;;;;;;;;;;5036881;28;20643;-61
2023/12/12 01:10:19;;;;;;;0.55;0.32;;;;;;;;;;5030908;28;20048;-61
2023/12/12 01:12:45;;;;;;;0.75;0.38;;;;;;;;;;5033604;28;20044;-61
2023/12/12 01:15:11;;;;;;;0.60;0.30;;;;;;;;;;5036543;28;20064;-61
2023/12/12 01:17:37;;;;;;;0.50;0.30;;;;;;;;;;5031788;28;20477;-61
2023/12/12 01:20:03;;;;;;;0.20;0.20;;;;;;;;;;5031778;28;20650;-61
2023/12/12 01:22:29;;;;;;;0.52;0.10;;;;;;;;;;5030631;28;20418;-61
2023/12/12 01:24:55;;;;;;;0.32;0.20;;;;;;;;;;5035581;28;20041;-62
2023/12/12 01:27:21;;;;;;;0.20;0.20;;;;;;;;;;5033091;28;20049;-62
2023/12/12 01:29:48;;;;;;;1.02;0.17;;;;;;;;;;5035494;28;20049;-61
2023/12/12 01:32:14;;;;;;;0.10;0.10;;;;;;;;;;5035765;28;20039;-61
2023/12/12 01:34:40;;;;;;;0.30;0.20;;;;;;;;;;5068854;28;20478;-61
2023/12/12 01:37:06;;;;;;;0.10;0.10;;;;;;;;;;5032922;28;20041;-62
2023/12/12 01:39:32;;;;;;;1.45;0.20;;;;;;;;;;5033456;28;20076;-61
2023/12/12 01:41:58;;;;;;;0.47;0.10;;;;;;;;;;5032333;28;20076;-61
2023/12/12 01:44:24;;;;;;;0.25;0.17;;;;;;;;;;5032833;28;20129;-61
2023/12/12 01:46:51;;;;;;;0.65;0.20;;;;;;;;;;5034348;28;20497;-61
2023/12/12 01:49:18;;;;;;;0.20;0.20;;;;;;;;;;5034462;28;20145;-61
2023/12/12 01:51:45;;;;;;;0.20;0.20;;;;;;;;;;5036074;28;20543;-61
2023/12/12 01:54:13;;;;;;;0.30;0.30;;;;;;;;;;5036189;28;20064;-62
2023/12/12 01:56:39;;;;;;;0.10;0.10;;;;;;;;;;5034000;28;20045;-61
2023/12/12 01:59:05;;;;;;;1.42;0.20;;;;;;;;;;5033447;28;20444;-61
2023/12/12 02:01:31;;;;;;;0.20;0.20;;;;;;;;;;5032821;28;20060;-61
2023/12/12 02:03:58;;;;;;;0.40;0.20;;;;;;;;;;5038385;28;20045;-61
2023/12/12 02:06:24;;;;;;;0.47;0.20;;;;;;;;;;5038736;28;20448;-61
2023/12/12 02:08:51;;;;;;;0.95;0.40;;;;;;;;;;5036178;28;20038;-61
2023/12/12 02:11:17;;;;;;;0.32;0.20;;;;;;;;;;5032417;28;20199;-61
2023/12/12 02:13:43;;;;;;;0.22;0.22;;;;;;;;;;5035505;28;20135;-61
2023/12/12 02:16:09;;;;;;;1.73;0.50;;;;;;;;;;5033541;28;20140;-62
2023/12/12 02:18:35;;;;;;;0.30;0.30;;;;;;;;;;5034976;28;20098;-61
2023/12/12 02:21:01;;;;;;;0.45;0.40;;;;;;;;;;5031544;28;20064;-61
2023/12/12 02:23:31;;;;;;;0.43;0.22;;;;;;;;;;5033795;28;20509;-61
2023/12/12 02:25:57;;;;;;;0.38;0.25;;;;;;;;;;5026882;28;20034;-62
2023/12/12 02:28:23;;;;;;;0.38;0.30;;;;;;;;;;5030716;28;20049;-62
2023/12/12 02:30:50;;;;;;;0.25;0.20;;;;;;;;;;5028875;28;20156;-61
2023/12/12 02:33:16;;;;;;;0.30;0.30;;;;;;;;;;5035091;28;20045;-61
2023/12/12 02:35:42;;;;;;;1.65;0.30;;;;;;;;;;5036263;28;20051;-62
2023/12/12 02:38:08;;;;;;;0.10;0.10;;;;;;;;;;5032360;28;20412;-62
2023/12/12 02:40:34;;;;;;;0.20;0.20;;;;;;;;;;5036616;28;21813;-62
2023/12/12 02:43:00;;;;;;;0.30;0.20;;;;;;;;;;5031323;28;20038;-61
2023/12/12 02:45:26;;;;;;;0.38;0.20;;;;;;;;;;5036406;28;20063;-61
2023/12/12 02:47:52;;;;;;;1.05;0.40;;;;;;;;;;5037262;28;20124;-62
2023/12/12 02:50:19;;;;;;;0.20;0.20;;;;;;;;;;5034142;28;20052;-61
2023/12/12 02:52:45;;;;;;;0.30;0.28;;;;;;;;;;5035422;28;20124;-62
2023/12/12 02:55:11;;;;;;;0.22;0.22;;;;;;;;;;5034079;28;20248;-62
2023/12/12 02:57:37;;;;;;;0.28;0.28;;;;;;;;;;5034785;28;20040;-62
2023/12/12 03:00:03;;;;;;;0.52;0.25;;;;;;;;;;5033924;28;20099;-61
2023/12/12 03:02:30;;;;;;;0.30;0.20;;;;;;;;;;5034894;28;20128;-61
2023/12/12 03:04:57;;;;;;;0.30;0.30;;;;;;;;;;5030749;28;20049;-61
2023/12/12 03:07:23;;;;;;;0.57;0.47;;;;;;;;;;5031073;28;20048;-62
2023/12/12 03:09:49;;;;;;;0.40;0.40;;;;;;;;;;5030610;28;20034;-62
2023/12/12 03:12:15;;;;;;;0.68;0.50;;;;;;;;;;5033426;28;20052;-62
2023/12/12 03:14:41;;;;;;;0.55;0.40;;;;;;;;;;5030576;28;20392;-62
2023/12/12 03:17:08;;;;;;;0.30;0.30;;;;;;;;;;5034120;28;20048;-62
2023/12/12 03:19:34;;;;;;;0.32;0.30;;;;;;;;;;5035530;28;20032;-62
2023/12/12 03:22:00;;;;;;;1.27;0.50;;;;;;;;;;5038013;28;20043;-61
2023/12/12 03:24:26;;;;;;;0.30;0.30;;;;;;;;;;5037027;28;20126;-61
2023/12/12 03:26:52;;;;;;;1.92;0.68;;;;;;;;;;5030400;28;20084;-61
2023/12/12 03:29:18;;;;;;;0.38;0.30;;;;;;;;;;5031221;28;20094;-62
2023/12/12 03:31:44;;;;;;;0.35;0.35;;;;;;;;;;5026259;28;20095;-62
2023/12/12 03:34:10;;;;;;;0.50;0.50;;;;;;;;;;5035589;28;20044;-62
2023/12/12 03:36:36;;;;;;;0.40;0.35;;;;;;;;;;5036769;28;20041;-62
2023/12/12 03:39:02;;;;;;;0.60;0.35;;;;;;;;;;5035117;28;20374;-61
2023/12/12 03:41:29;;;;;;;0.28;0.28;;;;;;;;;;5031350;28;20041;-61
2023/12/12 03:43:55;;;;;;;1.42;0.70;;;;;;;;;;5036895;28;20041;-62
2023/12/12 03:46:21;;;;;;;1.02;0.30;;;;;;;;;;5034707;28;20044;-61
2023/12/12 03:48:47;;;;;;;0.40;0.40;;;;;;;;;;5034936;28;20409;-62
2023/12/12 03:51:13;;;;;;;0.28;0.20;;;;;;;;;;5032239;28;20041;-62
2023/12/12 03:53:39;;;;;;;0.47;0.32;;;;;;;;;;5035964;28;20045;-62
2023/12/12 03:56:06;;;;;;;0.20;0.20;;;;;;;;;;5037461;28;20048;-62
2023/12/12 03:58:32;;;;;;;2.38;0.80;;;;;;;;;;5034278;28;20037;-62
2023/12/12 04:00:58;;;;;;;0.40;0.30;;;;;;;;;;5036883;28;20068;-62
2023/12/12 04:03:24;;;;;;;0.40;0.30;;;;;;;;;;5035578;28;20136;-62
2023/12/12 04:05:50;;;;;;;0.65;0.43;;;;;;;;;;5039482;28;20125;-62
2023/12/12 04:08:16;;;;;;;0.40;0.32;;;;;;;;;;5031737;28;20393;-61
2023/12/12 04:10:42;;;;;;;1.23;0.52;;;;;;;;;;5040678;28;20045;-61
2023/12/12 04:13:08;;;;;;;0.70;0.20;;;;;;;;;;5037221;28;20047;-61
2023/12/12 04:15:34;;;;;;;0.20;0.15;;;;;;;;;;5041618;28;20455;-62
2023/12/12 04:18:00;;;;;;;0.47;0.30;;;;;;;;;;5039003;28;20115;-62
2023/12/12 04:20:26;;;;;;;0.77;0.30;;;;;;;;;;5039377;28;20055;-61
2023/12/12 04:22:52;;;;;;;1.02;0.85;;;;;;;;;;5033539;28;20122;-61
2023/12/12 04:25:19;;;;;;;0.90;0.50;;;;;;;;;;5030111;28;20052;-61
2023/12/12 04:27:45;;;;;;;1.05;0.50;;;;;;;;;;5032828;28;20508;-61
2023/12/12 04:30:12;;;;;;;1.27;0.40;;;;;;;;;;5029565;28;20485;-62
2023/12/12 04:32:38;;;;;;;0.63;0.50;;;;;;;;;;5035450;28;21786;-62
2023/12/12 04:35:08;;;;;;;1.38;0.50;;;;;;;;;;5035538;28;20533;-61
2023/12/12 04:37:34;;;;;;;1.65;0.60;;;;;;;;;;5034279;28;20145;-61
2023/12/12 04:40:01;;;;;;;1.13;0.50;;;;;;;;;;5034885;28;20072;-62
2023/12/12 04:42:27;;;;;;;0.40;0.32;;;;;;;;;;5036084;28;20171;-61
2023/12/12 04:44:53;;;;;;;0.40;0.40;;;;;;;;;;5039860;28;20613;-62
2023/12/12 04:47:19;;;;;;;0.57;0.50;;;;;;;;;;5038661;28;20072;-62
2023/12/12 04:49:45;;;;;;;0.70;0.40;;;;;;;;;;5034570;28;20121;-61
2023/12/12 04:52:10;;;;;;;0.90;0.60;;;;;;;;;;5031508;28;20470;-61
2023/12/12 04:54:36;;;;;;;0.85;0.40;;;;;;;;;;5030036;28;20226;-61
2023/12/12 04:57:03;;;;;;;0.60;0.50;;;;;;;;;;5035324;28;20037;-62
2023/12/12 04:59:29;;;;;;;0.63;0.50;;;;;;;;;;5038443;28;20068;-62
2023/12/12 05:01:55;;;;;;;0.40;0.30;;;;;;;;;;5035495;28;20127;-62
2023/12/12 05:04:21;;;;;;;0.65;0.65;;;;;;;;;;5029423;28;20057;-61
2023/12/12 05:06:47;;;;;;;0.40;0.40;;;;;;;;;;5037945;28;20051;-61
2023/12/12 05:09:13;;;;;;;0.40;0.40;;;;;;;;;;5038184;28;20045;-61
2023/12/12 05:11:39;;;;;;;1.40;0.50;;;;;;;;;;5035706;28;20088;-61
2023/12/12 05:14:06;;;;;;;0.88;0.68;;;;;;;;;;5038697;28;20579;-61
2023/12/12 05:16:32;;;;;;;0.52;0.52;;;;;;;;;;5037249;28;20144;-62
2023/12/12 05:18:58;;;;;;;0.52;0.40;;;;;;;;;;5037412;28;20093;-61
2023/12/12 05:21:24;;;;;;;0.43;0.35;;;;;;;;;;5036090;28;20490;-62
2023/12/12 05:23:51;;;;;;;0.95;0.50;;;;;;;;;;5033964;28;20795;-62
2023/12/12 05:26:18;;;;;;;0.80;0.43;;;;;;;;;;5037689;28;20049;-62
2023/12/12 05:28:44;;;;;;;0.60;0.60;;;;;;;;;;5037467;28;20113;-62
2023/12/12 05:31:10;;;;;;;0.35;0.35;;;;;;;;;;5037416;28;20051;-62
2023/12/12 05:33:36;;;;;;;0.30;0.30;;;;;;;;;;5036472;28;20424;-62
2023/12/12 05:36:02;;;;;;;0.70;0.70;;;;;;;;;;5032203;28;20036;-62
2023/12/12 05:38:28;;;;;;;0.50;0.50;;;;;;;;;;5030785;28;20044;-62
2023/12/12 05:40:56;;;;;;;0.40;0.30;;;;;;;;;;5031836;28;20041;-62
2023/12/12 05:43:22;;;;;;;0.40;0.40;;;;;;;;;;5036151;28;20160;-61
2023/12/12 05:45:48;;;;;;;0.40;0.40;;;;;;;;;;5036847;28;20057;-61
2023/12/12 05:48:14;;;;;;;0.50;0.47;;;;;;;;;;5037643;28;20052;-61
2023/12/12 05:50:40;;;;;;;2.28;0.50;;;;;;;;;;5039410;28;20091;-62
2023/12/12 05:53:06;;;;;;;1.17;1.05;;;;;;;;;;5036286;28;20068;-61
2023/12/12 05:55:32;;;;;;;1.65;0.70;;;;;;;;;;5030117;28;20070;-61
2023/12/12 05:57:58;;;;;;;1.42;1.27;;;;;;;;;;5033620;28;20045;-62
2023/12/12 06:00:27;;;;;;;1.95;1.35;;;;;;;;;;5034267;28;20037;-62
2023/12/12 06:02:54;;;;;;;0.88;0.75;;;;;;;;;;5034011;28;20759;-62
2023/12/12 06:05:20;;;;;;;1.38;1.00;;;;;;;;;;5032300;28;20045;-62
2023/12/12 06:07:46;;;;;;;1.20;1.10;;;;;;;;;;5034703;28;20048;-61
2023/12/12 06:10:12;;;;;;;0.70;0.70;;;;;;;;;;5034583;28;20052;-62
2023/12/12 06:12:38;;;;;;;1.70;0.98;;;;;;;;;;5032513;28;20052;-62
2023/12/12 06:15:07;;;;;;;0.70;0.70;;;;;;;;;;5040839;28;20057;-62
2023/12/12 06:17:34;;;;;;;0.93;0.80;;;;;;;;;;5036992;28;20045;-62
2023/12/12 06:20:00;;;;;;;1.63;1.00;;;;;;;;;;5036735;28;20042;-62
2023/12/12 06:22:26;;;;;;;0.65;0.65;;;;;;;;;;5034029;28;20048;-62
2023/12/12 06:24:52;;;;;;;0.93;0.77;;;;;;;;;;5035752;28;20594;-62
2023/12/12 06:27:18;;;;;;;0.57;0.57;;;;;;;;;;5036970;28;20049;-62
2023/12/12 06:29:44;;;;;;;0.52;0.52;;;;;;;;;;5033060;28;20068;-61
2023/12/12 06:32:10;;;;;;;0.63;0.50;;;;;;;;;;5035161;28;20037;-62
2023/12/12 06:34:36;;;;;;;0.50;0.50;;;;;;;;;;5032508;28;20055;-62
2023/12/12 06:37:03;;;;;;;0.70;0.70;;;;;;;;;;5031642;28;20752;-61
2023/12/12 06:39:29;;;;;;;1.13;0.52;;;;;;;;;;5033077;28;20045;-62
2023/12/12 06:41:55;;;;;;;0.75;0.57;;;;;;;;;;5032523;28;20048;-61
2023/12/12 06:44:21;;;;;;;0.40;0.35;;;;;;;;;;5030536;28;20059;-61
2023/12/12 06:46:47;;;;;;;0.40;0.40;;;;;;;;;;5029923;28;20049;-62
2023/12/12 06:49:13;;;;;;;0.80;0.65;;;;;;;;;;5032672;28;20069;-62
2023/12/12 06:51:39;;;;;;;0.52;0.43;;;;;;;;;;5032373;28;20385;-61
2023/12/12 06:54:05;;;;;;;0.40;0.40;;;;;;;;;;5035374;28;20049;-61
2023/12/12 06:56:31;;;;;;;0.60;0.52;;;;;;;;;;5037784;28;20049;-61
2023/12/12 06:58:57;;;;;;;0.95;0.80;;;;;;;;;;5032154;28;20517;-61
2023/12/12 07:01:23;;;;;;;0.52;0.50;;;;;;;;;;5038789;28;20053;-61
2023/12/12 07:03:49;;;;;;;0.50;0.45;;;;;;;;;;5039644;28;20037;-61
2023/12/12 07:06:21;;;;;;;0.85;0.70;;;;;;;;;;5033587;28;20041;-62
2023/12/12 07:08:47;;;;;;;0.57;0.50;;;;;;;;;;5032883;28;20056;-61
2023/12/12 07:11:13;;;;;;;0.50;0.50;;;;;;;;;;5035739;28;20045;-62
2023/12/12 07:13:39;;;;;;;0.40;0.40;;;;;;;;;;5031736;28;20052;-62
2023/12/12 07:16:05;;;;;;;0.60;0.60;;;;;;;;;;5034319;28;20044;-61
2023/12/12 07:18:31;;;;;;;0.82;0.82;;;;;;;;;;5035511;28;20151;-61
2023/12/12 07:21:00;;;;;;;0.40;0.40;;;;;;;;;;5034177;28;20148;-61
2023/12/12 07:23:26;;;;;;;0.75;0.50;;;;;;;;;;5031899;28;20041;-61
2023/12/12 07:25:52;;;;;;;0.55;0.47;;;;;;;;;;5033871;28;20083;-61
2023/12/12 07:28:18;;;;;;;0.70;0.70;;;;;;;;;;5032658;28;20048;-61
2023/12/12 07:30:44;;;;;;;1.27;1.05;;;;;;;;;;5042132;28;20040;-61
2023/12/12 07:33:11;;;;;;;1.02;0.93;;;;;;;;;;5038891;28;20120;-62
2023/12/12 07:35:37;;;;;;;1.27;1.13;;;;;;;;;;5033286;28;20076;-62
2023/12/12 07:38:03;;;;;;;1.88;1.50;;;;;;;;;;5037532;28;20509;-62
2023/12/12 07:40:30;;;;;;;1.63;1.50;;;;;;;;;;5035501;28;20049;-62
2023/12/12 07:42:56;;;;;;;2.75;2.05;;;;;;;;;;5034370;28;20119;-62
2023/12/12 07:45:22;;;;;;;1.67;1.58;;;;;;;;;;5040417;28;20065;-62
2023/12/12 07:47:48;;;;;;;2.28;1.83;;;;;;;;;;5035290;28;20049;-62
2023/12/12 07:50:17;;;;;;;2.33;2.13;;;;;;;;;;5040039;28;20516;-62
2023/12/12 07:52:43;;;;;;;2.22;1.73;;;;;;;;;;5040835;28;20053;-62
2023/12/12 07:55:09;;;;;;;1.67;1.58;;;;;;;;;;5036104;28;20046;-62
2023/12/12 07:57:36;;;;;;;1.73;1.63;;;;;;;;;;5040495;28;20048;-62
2023/12/12 08:00:05;;;;;;;1.70;1.60;;;;;;;;;;5032830;28;20545;-62
2023/12/12 08:02:32;;;;;;;2.38;2.17;;;;;;;;;;5045433;28;20052;-62
2023/12/12 08:04:58;;;;;;;1.38;1.27;;;;;;;;;;5036912;28;20136;-61
2023/12/12 08:07:24;;;;;;;1.45;1.30;;;;;;;;;;5041831;28;20040;-61
2023/12/12 08:09:50;;;;;;;1.77;1.67;;;;;;;;;;5032750;28;20538;-62
2023/12/12 08:12:16;;;;;;;1.70;1.60;;;;;;;;;;5034973;28;20041;-62
2023/12/12 08:14:42;;;;;;;2.17;1.95;;;;;;;;;;5040214;28;20048;-62
2023/12/12 08:17:09;;;;;;;2.25;2.05;;;;;;;;;;5035699;28;20102;-61
2023/12/12 08:19:35;;;;;;;1.67;1.58;;;;;;;;;;5043739;28;20137;-61
2023/12/12 08:22:01;;;;;;;1.48;1.38;;;;;;;;;;5040169;28;20044;-61
2023/12/12 08:24:27;;;;;;;1.33;1.23;;;;;;;;;;5041319;28;20041;-62
2023/12/12 08:26:54;;;;;;;1.75;1.65;;;;;;;;;;5040719;28;20045;-62
2023/12/12 08:29:20;;;;;;;1.92;1.83;;;;;;;;;;5034768;28;20067;-62
2023/12/12 08:31:46;;;;;;;1.63;1.30;;;;;;;;;;5040514;28;20120;-62
2023/12/12 08:34:12;;;;;;;2.28;1.40;;;;;;;;;;5037900;28;20056;-61
2023/12/12 08:36:38;;;;;;;1.88;1.67;;;;;;;;;;5036812;28;20060;-62
2023/12/12 08:39:04;;;;;;;1.67;1.58;;;;;;;;;;5036685;28;20041;-61
2023/12/12 08:41:31;;;;;;;2.15;1.80;;;;;;;;;;5033965;28;20508;-62
2023/12/12 08:43:58;;;;;;;1.40;1.30;;;;;;;;;;5036678;28;20098;-61
2023/12/12 08:46:26;;;;;;;2.28;2.08;;;;;;;;;;5043730;28;20060;-61
2023/12/12 08:48:53;;;;;;;1.00;0.93;;;;;;;;;;5034542;28;20148;-62
2023/12/12 08:51:19;;;;;;;1.27;1.17;;;;;;;;;;5042030;28;20052;-61
2023/12/12 08:53:45;;;;;;;2.03;1.83;;;;;;;;;;5038932;28;20653;-61
2023/12/12 08:56:16;;;;;;;3.28;2.50;;;;;;;;;;5038256;28;20597;-62
2023/12/12 08:58:41;;;;;;;2.80;2.55;;;;;;;;;;5040383;28;20041;-62
2023/12/12 09:01:08;;;;;;;2.40;2.10;;;;;;;;;;5034335;28;20049;-62
2023/12/12 09:03:34;;;;;;;2.08;1.70;;;;;;;;;;5039002;28;20047;-62
2023/12/12 09:05:59;;;;;;;2.63;2.42;;;;;;;;;;5036371;28;20048;-62
2023/12/12 09:08:26;;;;;;;2.75;2.45;;;;;;;;;;5038261;28;20547;-62
2023/12/12 09:10:52;;;;;;;3.75;3.45;;;;;;;;;;5039598;28;20045;-62
2023/12/12 09:13:19;;;;;;;4.50;3.38;;;;;;;;;;5043028;28;20055;-60
2023/12/12 09:15:45;;;;;;;5.10;3.40;;;;;;;;;;5046631;28;20032;-57
2023/12/12 09:18:11;;;;;;;4.78;4.00;;;;;;;;;;5037419;28;20079;-62
2023/12/12 09:20:37;;;;;;;4.93;4.53;;;;;;;;;;5032547;28;20093;-56
2023/12/12 09:23:03;;;;;;;5.47;4.97;;;;;;;;;;5045655;28;20063;-57
2023/12/12 09:25:29;;;;;;;7.47;6.75;;;;;;;;;;5044845;28;20045;-62
2023/12/12 09:27:55;;;;;;;7.05;5.93;;;;;;;;;;5045616;28;20064;-61
2023/12/12 09:30:21;;;;;;;7.15;6.50;;;;;;;;;;5044083;28;20495;-61
2023/12/12 09:32:48;;;;;;;5.70;5.20;;;;;;;;;;5039486;28;20152;-62
2023/12/12 09:35:16;;;;;;;5.70;5.20;;;;;;;;;;5043207;28;20102;-62
2023/12/12 09:37:42;;;;;;;5.75;5.25;;;;;;;;;;5040773;28;20099;-61
2023/12/12 09:40:09;;;;;;;8.48;5.60;;;;;;;;;;5043801;28;20040;-61
2023/12/12 09:42:36;;;;;;;5.57;5.00;;;;;;;;;;5041649;28;20041;-61
2023/12/12 09:45:04;;;;;;;5.18;4.78;;;;;;;;;;5043700;28;20069;-61
2023/12/12 09:47:31;;;;;;;5.05;4.65;;;;;;;;;;5038063;28;20036;-61
2023/12/12 09:50:00;;;;;;;4.40;3.92;;;;;;;;;;5042688;28;20049;-62
2023/12/12 09:52:29;;;;;;;4.82;4.38;;;;;;;;;;5039603;28;20056;-61
2023/12/12 09:54:58;;;;;;;4.25;3.88;;;;;;;;;;5042345;28;20044;-62
2023/12/12 09:57:24;;;;;;;5.20;4.68;;;;;;;;;;5068684;28;20037;-62
2023/12/12 09:59:50;;;;;;;4.93;4.53;;;;;;;;;;5041525;28;20132;-61
2023/12/12 10:02:22;;;;;;;4.72;4.32;;;;;;;;;;5041646;28;20119;-62
2023/12/12 10:04:49;;;;;;;6.30;5.70;;;;;;;;;;5042184;28;20051;-63
2023/12/12 10:07:17;;;;;;;4.93;4.43;;;;;;;;;;5043921;28;20041;-63
2023/12/12 10:09:43;;;;;;;4.43;4.03;;;;;;;;;;5042833;28;20041;-63
2023/12/12 10:12:10;;;;;;;3.50;3.20;;;;;;;;;;5041450;28;20040;-63
2023/12/12 10:14:40;;;;;;;4.10;3.70;;;;;;;;;;5042738;28;20045;-63
2023/12/12 10:17:10;;;;;;;4.13;3.80;;;;;;;;;;5041800;28;20465;-63
2023/12/12 10:19:36;;;;;;;4.47;4.07;;;;;;;;;;5042660;28;20684;-63
2023/12/12 10:22:06;;;;;;;4.28;3.88;;;;;;;;;;5045519;28;20126;-63
2023/12/12 10:24:32;;;;;;;4.65;4.18;;;;;;;;;;5043676;28;20630;-62
2023/12/12 10:26:59;;;;;;;5.00;4.45;;;;;;;;;;5040717;28;20548;-62
2023/12/12 10:29:25;;;;;;;5.43;4.93;;;;;;;;;;5042014;28;20051;-62
2023/12/12 10:31:53;;;;;;;5.05;4.55;;;;;;;;;;5042681;28;20059;-62
2023/12/12 10:34:19;;;;;;;5.05;4.63;;;;;;;;;;5034392;28;20045;-63
2023/12/12 10:36:49;;;;;;;5.05;4.50;;;;;;;;;;5038183;28;20044;-63
2023/12/12 10:39:16;;;;;;;5.10;4.68;;;;;;;;;;5044226;28;20126;-63
2023/12/12 10:41:51;;;;;;;5.47;4.97;;;;;;;;;;5043718;28;20663;-63
2023/12/12 10:44:19;;;;;;;5.18;4.68;;;;;;;;;;5035904;28;20040;-62
2023/12/12 10:46:47;;;;;;;4.80;4.40;;;;;;;;;;5042646;28;20068;-63
2023/12/12 10:49:14;;;;;;;6.00;5.40;;;;;;;;;;5044705;28;20099;-63
2023/12/12 10:51:40;;;;;;;6.40;5.70;;;;;;;;;;5040113;28;20045;-63
2023/12/12 10:54:07;;;;;;;6.57;5.95;;;;;;;;;;5044250;28;20041;-63
2023/12/12 10:56:35;;;;;;;6.32;5.68;;;;;;;;;;5042427;28;20106;-62
2023/12/12 10:59:03;;;;;;;6.50;5.80;;;;;;;;;;5038420;28;20516;-62
2023/12/12 11:01:29;;;;;;;6.60;6.00;;;;;;;;;;5042607;28;20051;-62
2023/12/12 11:03:57;;;;;;;8.05;6.70;;;;;;;;;;5046953;28;20033;-62
2023/12/12 11:06:24;;;;;;;7.32;6.63;;;;;;;;;;5046358;28;20110;-62
2023/12/12 11:08:52;;;;;;;6.75;5.72;;;;;;;;;;5046117;28;20040;-62
2023/12/12 11:11:19;;;;;;;5.78;4.90;;;;;;;;;;5038392;28;20057;-62
2023/12/12 11:13:46;;;;;;;5.10;4.60;;;;;;;;;;5048321;28;20166;-61
2023/12/12 11:16:13;;;;;;;6.35;5.72;;;;;;;;;;5047542;28;20049;-62
2023/12/12 11:18:41;;;;;;;6.45;5.82;;;;;;;;;;5047244;28;20053;-62
2023/12/12 11:21:07;;;;;;;8.23;7.30;;;;;;;;;;5048335;28;20154;-56
2023/12/12 11:23:43;;;;;;;8.95;8.05;;;;;;;;;;5047122;28;20072;-60
2023/12/12 11:26:09;;;;;;;8.55;7.72;;;;;;;;;;5038837;28;20272;-62
2023/12/12 11:28:38;;;;;;;11.45;9.70;;;;;;;;;;5042448;28;20073;-62
2023/12/12 11:31:05;;;;;;;11.23;9.75;;;;;;;;;;5045801;28;20045;-62
2023/12/12 11:33:31;;;;;;;10.02;8.98;;;;;;;;;;5043835;28;20151;-62
2023/12/12 11:35:57;;;;;;;10.30;8.88;;;;;;;;;;5042024;28;20405;-62
2023/12/12 11:38:28;;;;;;;8.50;7.60;;;;;;;;;;5041272;28;20061;-62
2023/12/12 11:41:09;;;;;;;10.05;8.77;;;;;;;;;;5037663;28;20045;-62
2023/12/12 11:43:36;;;;;;;8.85;7.82;;;;;;;;;;5041101;28;20040;-62
2023/12/12 11:46:20;;;;;;;11.38;8.95;;;;;;;;;;5043150;28;20045;-62
2023/12/12 11:48:47;;;;;;;9.60;7.82;;;;;;;;;;5042128;28;20390;-62
2023/12/12 11:51:31;;;;;;;7.88;7.07;;;;;;;;;;5039418;28;20041;-62
2023/12/12 11:53:58;;;;;;;9.32;7.97;;;;;;;;;;5045929;28;20628;-62
2023/12/12 11:56:24;;;;;;;8.38;7.15;;;;;;;;;;5037617;28;20421;-57
2023/12/12 11:58:53;;;;;;;9.48;7.78;;;;;;;;;;5047299;28;20048;-59
2023/12/12 12:01:23;;;;;;;10.00;7.85;;;;;;;;;;5044798;28;20518;-62
2023/12/12 12:03:49;;;;;;;9.70;8.23;;;;;;;;;;5044272;28;20047;-62
2023/12/12 12:06:15;;;;;;;9.40;7.72;;;;;;;;;;5045813;28;20475;-62
2023/12/12 12:08:41;;;;;;;9.20;7.57;;;;;;;;;;5044964;28;20783;-62
2023/12/12 12:11:07;;;;;;;9.88;7.90;;;;;;;;;;5046582;28;20049;-62
2023/12/12 12:13:37;;;;;;;8.35;7.03;;;;;;;;;;5046068;28;20041;-62
2023/12/12 12:16:04;;;;;;;7.43;6.65;;;;;;;;;;5045771;28;20094;-62
2023/12/12 12:18:30;;;;;;;10.82;7.63;;;;;;;;;;5046367;28;20052;-62
2023/12/12 12:20:56;;;;;;;10.90;8.98;;;;;;;;;;5045157;28;20044;-63
2023/12/12 12:23:22;;;;;;;10.77;8.77;;;;;;;;;;5046316;28;20044;-63
2023/12/12 12:25:48;;;;;;;8.30;7.13;;;;;;;;;;5045254;28;20138;-62
2023/12/12 12:28:14;;;;;;;9.48;8.27;;;;;;;;;;5045079;28;20021;-61
2023/12/12 12:30:46;;;;;;;10.60;8.27;;;;;;;;;;5041665;28;20132;-62
2023/12/12 12:33:13;;;;;;;9.60;8.60;;;;;;;;;;5039666;28;20049;-62
2023/12/12 12:35:50;;;;;;;9.93;8.32;;;;;;;;;;5041787;28;20441;-62
2023/12/12 12:38:23;;;;;;;14.52;11.18;;;;;;;;;;5037936;28;20068;-62
2023/12/12 12:40:49;;;;;;;15.18;12.95;;;;;;;;;;5043986;28;20467;-62
2023/12/12 12:43:17;;;;;;;14.38;11.90;;;;;;;;;;5043706;28;20044;-62
2023/12/12 12:45:43;;;;;;;16.58;11.77;;;;;;;;;;5043779;28;20057;-62
2023/12/12 12:48:09;;;;;;;13.95;12.32;;;;;;;;;;5043733;28;20513;-62
2023/12/12 12:50:35;;;;;;;16.33;12.32;;;;;;;;;;5041995;28;20315;-62
2023/12/12 12:53:03;;;;;;;18.45;13.75;;;;;;;;;;5043827;28;20332;-61
2023/12/12 12:55:29;;;;;;;15.13;13.52;;;;;;;;;;5043620;28;20459;-62
2023/12/12 12:57:55;;;;;;;14.05;12.55;;;;;;;;;;5042727;28;20119;-61
2023/12/12 13:00:21;;;;;;;15.18;12.32;;;;;;;;;;5043830;28;20045;-62
2023/12/12 13:02:47;;;;;;;16.38;13.00;;;;;;;;;;5043821;28;20043;-62
2023/12/12 13:05:13;;;;;;;16.27;13.48;;;;;;;;;;5043995;28;20079;-62
2023/12/12 13:07:39;;;;;;;17.42;13.50;;;;;;;;;;5045007;28;20036;-62
2023/12/12 13:10:07;;;;;;;20.48;15.25;;;;;;;;;;5045023;28;20041;-62
2023/12/12 13:12:33;;;;;;;19.55;15.52;;;;;;;;;;5044040;28;20489;-62
2023/12/12 13:14:59;;;;;;;17.27;14.00;;;;;;;;;;5044838;28;20047;-62
2023/12/12 13:17:24;;;;;;;21.00;15.60;;;;;;;;;;5045930;28;20087;-62
2023/12/12 13:19:50;;;;;;;17.73;14.68;;;;;;;;;;5043970;28;20451;-62
2023/12/12 13:22:16;;;;;;;21.67;16.00;;;;;;;;;;5044830;28;20140;-62
2023/12/12 13:24:42;;;;;;;18.25;15.35;;;;;;;;;;5044018;28;20304;-62
2023/12/12 13:27:10;;;;;;;17.80;14.10;;;;;;;;;;5045863;28;20082;-62
2023/12/12 13:29:36;;;;;;;17.33;13.45;;;;;;;;;;5045639;28;20642;-61
2023/12/12 13:32:02;;;;;;;16.90;14.23;;;;;;;;;;5045397;28;20037;-62
2023/12/12 13:34:30;;;;;;;15.85;12.98;;;;;;;;;;5045661;28;20048;-62
2023/12/12 13:36:57;;;;;;;19.55;16.60;;;;;;;;;;5045867;28;20341;-62
2023/12/12 13:39:23;;;;;;;19.63;15.55;;;;;;;;;;5045351;28;20037;-62
2023/12/12 13:41:49;;;;;;;20.55;16.58;;;;;;;;;;5046167;28;20039;-62
2023/12/12 13:44:16;;;;;;;20.33;15.38;;;;;;;;;;5046647;28;20382;-62
2023/12/12 13:46:43;;;;;;;20.73;14.77;;;;;;;;;;5045239;28;20375;-62
2023/12/12 13:49:09;;;;;;;22.58;17.15;;;;;;;;;;5045529;28;20048;-61
2023/12/12 13:51:35;;;;;;;20.50;16.88;;;;;;;;;;5045412;28;20091;-62
2023/12/12 13:54:01;;;;;;;19.15;15.02;;;;;;;;;;5044591;28;20033;-62
2023/12/12 13:56:27;;;;;;;22.77;16.85;;;;;;;;;;5045117;28;20544;-62
2023/12/12 13:58:53;;;;;;;21.27;15.05;;;;;;;;;;5043890;28;20106;-62
2023/12/12 14:01:19;;;;;;;18.35;14.40;;;;;;;;;;5044935;28;20045;-61
2023/12/12 14:03:45;;;;;;;20.83;14.20;;;;;;;;;;5045474;28;20037;-62
2023/12/12 14:06:11;;;;;;;17.88;15.05;;;;;;;;;;5045314;28;20122;-62
2023/12/12 14:08:37;;;;;;;20.85;15.68;;;;;;;;;;5044623;28;20057;-62
2023/12/12 14:11:03;;;;;;;18.38;15.05;;;;;;;;;;5044965;28;20421;-62
2023/12/12 14:13:29;;;;;;;17.50;13.65;;;;;;;;;;5044979;28;20057;-62
2023/12/12 14:15:55;;;;;;;15.85;13.65;;;;;;;;;;5044353;28;20496;-61
2023/12/12 14:18:21;;;;;;;19.77;14.73;;;;;;;;;;5044804;28;20044;-62
2023/12/12 14:20:48;;;;;;;16.83;13.75;;;;;;;;;;5044886;28;20066;-62
2023/12/12 14:23:13;;;;;;;21.77;16.67;;;;;;;;;;5044160;28;20327;-62
2023/12/12 14:25:39;;;;;;;18.77;14.52;;;;;;;;;;5044601;28;20478;-62
2023/12/12 14:28:06;;;;;;;23.38;16.77;;;;;;;;;;5044789;28;20048;-62
2023/12/12 14:30:32;;;;;;;20.38;14.98;;;;;;;;;;5043725;28;20390;-62
2023/12/12 14:32:58;;;;;;;25.50;17.20;;;;;;;;;;5045118;28;20044;-62
2023/12/12 14:35:30;;;;;;;21.83;16.02;;;;;;;;;;5044356;28;20064;-62